Nearby METAR Reports

Aktualna pogoda na lotniskach (dane METAR)

 

EPGD - Gdansk/Rebiechow, Poland
Distance from station: ENE 27mi, 44km
Updated: Thu, 02-Apr-2020 6:00pm PDT
Mostly Cloudy
Mostly Cloudy
 Wind from W
Wind: W 22 mph , 35 km/h
Temperature: 41°F , 5°C
Wind Chill: 31°F , -1°C
Dew Point: 34°F , 1°C
Humidity: 76%
Barometer: 29.44 inHg , 997 hPa
Clouds: Mostly Cloudy
Visibility: 6 miles , 10 km
Cloud details: Few Clouds 1600 ft
Mostly Cloudy 2400 ft
2020/04/03 01:00 EPGD 030100Z 28019KT 9999 FEW016 BKN024 05/01 Q0997
EPSC - Szczecin/Golenio, Poland
Distance from station: WSW 128mi, 205km
Updated: Thu, 02-Apr-2020 6:00pm PDT
Clear
Clear
 Wind from W
Wind: W 9 mph , 15 km/h
Temperature: 39°F , 4°C
Wind Chill: 33°F , 1°C
Dew Point: 34°F , 1°C
Humidity: 81%
Barometer: 29.59 inHg , 1002 hPa
Summary: Clear
Visibility: greater than 7 miles , 10 km
2020/04/03 01:00 EPSC 030100Z 26008KT CAVOK 04/01 Q1002
 
EPPO - Poznan/Lawica, Poland
Distance from station: SSW 131mi, 210km
Updated: Thu, 02-Apr-2020 6:00pm PDT
Clear
Clear
 Wind from SW
Wind: SW 9 mph , 15 km/h
Temperature: 37°F , 3°C
Wind Chill: 30°F , -1°C
Dew Point: 28°F , -2°C
Humidity: 70%
Barometer: 29.65 inHg , 1004 hPa
Summary: Clear
Visibility: greater than 7 miles , 10 km
2020/04/03 01:00 EPPO 030100Z 23008KT CAVOK 03/M02 Q1004
EPLL - Lodz/Lublinek, Poland
Distance from station: SSE 184mi, 296km
Updated: Thu, 02-Apr-2020 6:00pm PDT
Clear
Clear
 Wind from SW
Wind: SW 8 mph , 13 km/h
Temperature: 34°F , 1°C
Wind Chill: 27°F , -3°C
Dew Point: 23°F , -5°C
Humidity: 65%
Barometer: 29.68 inHg , 1005 hPa
Summary: Clear
Visibility: greater than 7 miles , 10 km
2020/04/03 01:00 EPLL 030100Z 22007KT CAVOK 01/M05 Q1005
 
EPWA - Warsaw/Okecie, Poland
Distance from station: SE 191mi, 307km
Updated: Thu, 02-Apr-2020 6:00pm PDT
Clear
Clear
 Wind from SSW
Wind: SSW 7 mph , 11 km/h
Temperature: 37°F , 3°C
Wind Chill: 32°F , 0°C
Dew Point: 25°F , -4°C
Humidity: 60%
Barometer: 29.65 inHg , 1004 hPa
Summary: Clear
Visibility: greater than 7 miles , 10 km
2020/04/03 01:00 EPWA 030100Z 21006KT CAVOK 03/M04 Q1004 NOSIG
EPWR - Wroclaw/Strachow, Poland
Distance from station: S 219mi, 352km
Updated: Thu, 02-Apr-2020 6:00pm PDT
Clear
Clear
 Wind from W
Wind: W 10 mph , 17 km/h
Temperature: 37°F , 3°C
Wind Chill: 30°F , -1°C
Dew Point: 27°F , -3°C
Humidity: 65%
Barometer: 29.74 inHg , 1007 hPa
Summary: Clear
Visibility: greater than 7 miles , 10 km
2020/04/03 01:00 EPWR 030100Z 28009KT CAVOK 03/M03 Q1007

Metar display script from Saratoga-Weather.org